createdAt,value
2018-08-23T00:02:09.064Z,82.20
2018-08-23T00:07:17.518Z,82.20
2018-08-23T00:12:25.283Z,82.90
2018-08-23T00:17:34.181Z,81.50
2018-08-23T00:22:37.726Z,82.50
2018-08-23T00:27:42.098Z,81.90
2018-08-23T00:32:50.140Z,82.60
2018-08-23T00:37:53.717Z,84.10
2018-08-23T00:43:02.838Z,84.80
2018-08-23T00:48:06.566Z,85.00
2018-08-23T00:53:10.238Z,85.70
2018-08-23T00:58:13.898Z,85.60
2018-08-23T01:03:17.766Z,86.30
2018-08-23T01:08:34.536Z,86.00
2018-08-23T01:13:38.102Z,86.40
2018-08-23T01:18:41.872Z,86.20
2018-08-23T01:23:46.607Z,86.50
2018-08-23T01:28:50.153Z,86.80
2018-08-23T01:33:54.839Z,86.60
2018-08-23T01:38:58.407Z,87.00
2018-08-23T01:44:01.980Z,86.40
2018-08-23T01:49:06.074Z,88.30
2018-08-23T01:54:09.633Z,87.90
2018-08-23T01:59:13.197Z,88.70
2018-08-23T02:04:16.774Z,88.40
2018-08-23T02:09:20.510Z,87.70
2018-08-23T02:14:24.210Z,87.90
2018-08-23T02:19:27.954Z,88.90
2018-08-23T02:24:36.029Z,89.70
2018-08-23T02:29:42.462Z,90.30
2018-08-23T02:34:51.978Z,90.10
2018-08-23T02:39:55.747Z,90.30
2018-08-23T02:45:04.271Z,90.50
2018-08-23T02:50:07.634Z,90.40
2018-08-23T02:55:11.182Z,90.20
2018-08-23T03:00:14.862Z,90.50
2018-08-23T03:05:22.574Z,90.40
2018-08-23T03:10:26.174Z,90.50
2018-08-23T03:15:31.848Z,90.90
2018-08-23T03:20:35.464Z,90.90
2018-08-23T03:25:39.017Z,90.80
2018-08-23T03:30:42.871Z,91.20
2018-08-23T03:35:46.486Z,91.60
2018-08-23T03:40:50.135Z,91.50
2018-08-23T03:45:54.682Z,91.40
2018-08-23T03:50:58.333Z,91.60
2018-08-23T03:56:07.590Z,91.80
2018-08-23T04:01:13.510Z,91.70
2018-08-23T04:06:28.247Z,92.10
2018-08-23T04:11:31.990Z,92.30
2018-08-23T04:16:35.631Z,92.40
2018-08-23T04:21:39.245Z,92.50
2018-08-23T04:26:42.866Z,92.50
2018-08-23T04:31:46.458Z,92.60
2018-08-23T04:36:50.042Z,92.70
2018-08-23T04:47:04.804Z,92.80
2018-08-23T04:52:08.355Z,93.20
2018-08-23T04:57:11.909Z,93.10
2018-08-23T05:02:18.830Z,93.50
2018-08-23T05:07:22.496Z,93.70
2018-08-23T05:12:26.252Z,93.40
2018-08-23T05:17:29.822Z,93.40
2018-08-23T05:22:33.493Z,92.50
2018-08-23T05:27:51.115Z,93.00
2018-08-23T05:32:55.810Z,92.80
2018-08-23T05:38:00.084Z,93.50
2018-08-23T05:43:03.686Z,93.00
2018-08-23T05:48:16.810Z,93.10
2018-08-23T05:53:20.790Z,93.00
2018-08-23T05:58:26.897Z,92.70
2018-08-23T06:03:30.674Z,92.80
2018-08-23T06:08:34.306Z,92.90
2018-08-23T06:13:38.214Z,92.20
2018-08-23T06:18:42.886Z,92.10
2018-08-23T06:23:53.489Z,92.10
2018-08-23T06:28:57.323Z,92.20
2018-08-23T06:34:00.925Z,91.90
2018-08-23T06:39:06.171Z,92.00
2018-08-23T06:44:09.830Z,92.30
2018-08-23T06:49:13.391Z,92.40
2018-08-23T06:54:17.007Z,91.70
2018-08-23T06:59:20.558Z,90.80
2018-08-23T07:04:24.255Z,90.50
2018-08-23T07:09:27.844Z,90.20
2018-08-23T07:14:31.606Z,89.60
2018-08-23T07:19:35.289Z,87.70
2018-08-23T07:24:43.775Z,78.10
2018-08-23T07:29:48.577Z,70.50
2018-08-23T07:34:59.247Z,67.50
2018-08-23T07:40:08.219Z,65.40
2018-08-23T07:45:13.196Z,63.40
2018-08-23T07:50:16.859Z,63.10
2018-08-23T07:55:20.588Z,59.90
2018-08-23T08:00:28.680Z,58.60
2018-08-23T08:05:34.306Z,58.00
2018-08-23T08:10:41.467Z,61.30
2018-08-23T08:15:46.134Z,60.00
2018-08-23T08:21:01.734Z,59.80
2018-08-23T08:26:05.450Z,56.60
2018-08-23T08:31:09.010Z,58.60
2018-08-23T08:36:14.642Z,57.90
2018-08-23T08:41:20.342Z,59.50
2018-08-23T08:46:24.042Z,56.10
2018-08-23T08:51:30.617Z,54.60
2018-08-23T08:56:39.158Z,53.60
2018-08-23T09:01:42.848Z,55.60
2018-08-23T09:06:46.499Z,54.70
2018-08-23T09:11:50.112Z,54.20
2018-08-23T09:16:54.052Z,53.00
2018-08-23T09:22:04.916Z,52.50
2018-08-23T09:27:15.712Z,52.30
2018-08-23T09:32:25.723Z,51.40
2018-08-23T09:37:30.750Z,52.70
2018-08-23T09:42:35.526Z,51.80
2018-08-23T09:47:45.031Z,51.30
2018-08-23T09:52:50.009Z,50.50
2018-08-23T09:57:53.618Z,49.80
2018-08-23T10:03:07.820Z,47.40
2018-08-23T10:08:16.939Z,46.20
2018-08-23T10:13:25.859Z,45.00
2018-08-23T10:18:34.851Z,45.60
2018-08-23T10:23:38.470Z,43.50
2018-08-23T10:28:50.610Z,44.00
2018-08-23T10:33:54.280Z,41.40
2018-08-23T10:38:57.865Z,41.90
2018-08-23T10:44:01.451Z,39.30
2018-08-23T10:49:05.518Z,37.50
2018-08-23T10:54:09.034Z,41.30
2018-08-23T10:59:15.893Z,41.10
2018-08-23T11:04:19.530Z,42.70
2018-08-23T11:09:28.387Z,45.30
2018-08-23T11:14:37.269Z,47.30
2018-08-23T11:19:46.254Z,44.60
2018-08-23T11:24:49.871Z,47.50
2018-08-23T11:29:53.420Z,47.10
2018-08-23T11:34:57.000Z,47.50
2018-08-23T11:40:00.650Z,49.10
2018-08-23T11:45:04.294Z,47.10
2018-08-23T11:50:07.939Z,43.10
2018-08-23T11:55:11.554Z,44.40
2018-08-23T12:00:15.304Z,42.20
2018-08-23T12:05:19.274Z,42.40
2018-08-23T12:10:24.079Z,43.60
2018-08-23T12:15:31.134Z,42.50
2018-08-23T12:20:34.734Z,45.60
2018-08-23T12:25:38.403Z,46.60
2018-08-23T12:30:42.530Z,48.80
2018-08-23T12:35:47.246Z,49.00
2018-08-23T12:40:56.189Z,47.90
2018-08-23T12:46:02.734Z,48.70
2018-08-23T12:51:06.319Z,49.50
2018-08-23T12:56:13.294Z,48.30
2018-08-23T13:01:16.995Z,48.60
2018-08-23T13:06:22.641Z,49.00
2018-08-23T13:11:26.165Z,45.60
2018-08-23T13:16:29.812Z,48.70
2018-08-23T13:21:33.665Z,49.50
2018-08-23T13:26:42.764Z,50.70
2018-08-23T13:31:46.476Z,51.20
2018-08-23T13:36:50.054Z,47.60
2018-08-23T13:41:54.718Z,46.20
2018-08-23T13:46:58.355Z,45.80
2018-08-23T13:52:04.420Z,45.50
2018-08-23T13:57:08.114Z,54.90
2018-08-23T14:02:11.766Z,56.60
2018-08-23T14:07:16.467Z,56.50
2018-08-23T14:12:20.099Z,56.80
2018-08-23T14:17:23.814Z,56.80
2018-08-23T14:22:28.146Z,56.10
2018-08-23T14:27:32.858Z,56.90
2018-08-23T14:32:36.438Z,54.50
2018-08-23T14:37:43.996Z,54.30
2018-08-23T14:42:47.668Z,52.00
2018-08-23T14:47:57.530Z,54.70
2018-08-23T14:53:01.206Z,50.80
2018-08-23T14:58:08.822Z,52.30
2018-08-23T15:03:12.436Z,52.20
2018-08-23T15:08:16.011Z,50.40
2018-08-23T15:13:19.636Z,48.10
2018-08-23T15:18:28.655Z,50.40
2018-08-23T15:23:38.068Z,49.50
2018-08-23T15:28:46.301Z,52.80
2018-08-23T15:33:50.254Z,52.40
2018-08-23T15:38:58.394Z,51.30
2018-08-23T15:44:01.911Z,51.30
2018-08-23T15:49:05.586Z,51.50
2018-08-23T15:54:09.581Z,53.60
2018-08-23T15:59:13.144Z,54.40
2018-08-23T16:04:17.631Z,55.70
2018-08-23T16:09:21.248Z,55.20
2018-08-23T16:14:28.459Z,56.60
2018-08-23T16:19:47.409Z,56.30
2018-08-23T16:24:53.083Z,55.10
2018-08-23T16:30:01.256Z,56.70
2018-08-23T16:35:06.960Z,56.50
2018-08-23T16:40:10.670Z,58.10
2018-08-23T16:45:14.202Z,58.10
2018-08-23T16:50:26.440Z,58.60
2018-08-23T16:55:30.063Z,58.80
2018-08-23T17:00:33.628Z,57.80
2018-08-23T17:05:37.173Z,57.70
2018-08-23T17:10:40.748Z,59.20
2018-08-23T17:15:49.614Z,61.10
2018-08-23T17:20:56.331Z,59.20
2018-08-23T17:26:07.867Z,60.70
2018-08-23T17:31:11.563Z,61.00
2018-08-23T17:36:15.146Z,62.70
2018-08-23T17:41:19.945Z,61.90
2018-08-23T17:46:23.646Z,62.20
2018-08-23T17:51:34.604Z,64.00
2018-08-23T17:56:52.490Z,65.00
2018-08-23T18:01:56.031Z,64.00
2018-08-23T18:06:59.637Z,65.60
2018-08-23T18:12:03.807Z,64.50
2018-08-23T18:17:07.470Z,66.30
2018-08-23T18:22:23.706Z,69.60
2018-08-23T18:27:31.989Z,68.20
2018-08-23T18:32:40.224Z,69.20
2018-08-23T18:37:45.243Z,66.80
2018-08-23T18:42:48.756Z,66.40
2018-08-23T18:47:52.784Z,67.20
2018-08-23T18:52:58.555Z,66.20
2018-08-23T18:58:03.186Z,68.50
2018-08-23T19:03:08.035Z,66.40
2018-08-23T19:08:13.687Z,64.80
2018-08-23T19:13:21.163Z,65.20
2018-08-23T19:18:25.044Z,66.40
2018-08-23T19:23:32.997Z,67.20
2018-08-23T19:28:38.778Z,67.80
2018-08-23T19:33:56.909Z,69.40
2018-08-23T19:39:01.086Z,71.30
2018-08-23T19:44:04.987Z,71.60
2018-08-23T19:49:14.029Z,72.60
2018-08-23T19:54:20.999Z,73.40
2018-08-23T19:59:25.711Z,73.50
2018-08-23T20:04:30.373Z,74.80
2018-08-23T20:09:37.854Z,75.60
2018-08-23T20:14:41.470Z,77.10
2018-08-23T20:19:45.210Z,77.70
2018-08-23T20:24:48.818Z,78.70
2018-08-23T20:29:52.466Z,79.40
2018-08-23T20:34:59.449Z,80.10
2018-08-23T20:40:05.167Z,81.30
2018-08-23T20:45:08.768Z,81.50
2018-08-23T20:50:12.371Z,81.90
2018-08-23T20:55:16.027Z,83.00
2018-08-23T21:00:19.736Z,82.80
2018-08-23T21:05:23.501Z,82.40
2018-08-23T21:10:27.168Z,82.80
2018-08-23T21:15:30.954Z,83.80
2018-08-23T21:20:34.535Z,84.30
2018-08-23T21:25:39.170Z,85.00
2018-08-23T21:30:42.865Z,85.00
2018-08-23T21:35:46.390Z,84.60
2018-08-23T21:40:49.984Z,85.20
2018-08-23T21:45:53.615Z,85.60
2018-08-23T21:50:57.158Z,85.20
2018-08-23T21:56:00.813Z,85.50
2018-08-23T22:01:07.055Z,86.10
2018-08-23T22:06:10.659Z,85.50
2018-08-23T22:11:14.195Z,86.30
2018-08-23T22:16:17.819Z,86.10
2018-08-23T22:21:22.466Z,85.60
2018-08-23T22:26:26.165Z,86.50
2018-08-23T22:31:29.922Z,87.10
2018-08-23T22:36:33.546Z,86.60
2018-08-23T22:41:42.166Z,86.60
2018-08-23T22:46:46.373Z,87.00
2018-08-23T22:51:51.082Z,86.50
2018-08-23T22:56:54.659Z,86.60
2018-08-23T23:01:58.281Z,86.40
2018-08-23T23:07:06.147Z,86.00
2018-08-23T23:12:10.793Z,85.40
2018-08-23T23:17:14.394Z,86.20
2018-08-23T23:22:18.058Z,86.60
2018-08-23T23:27:21.632Z,87.00
2018-08-23T23:32:25.426Z,85.60
2018-08-23T23:37:28.950Z,86.70
2018-08-23T23:42:32.700Z,85.90
2018-08-23T23:47:36.363Z,86.20
2018-08-23T23:52:40.910Z,86.40
2018-08-23T23:57:46.581Z,87.00
